Time;durP1;ratioP1;P1;durP2;ratioP2;P2;SDS_P1;SDS_P2;PMS_P1;PMS_P2;Temp;Humidity;BMP_temperature;BMP_pressure;BME280_temperature;BME280_humidity;BME280_pressure;Samples;Min_cycle;Max_cycle;Signal;HPM_P1;HPM_P2
2023/05/23 00:02:48;;;;;;;9.20;3.83;;;;;;;;;;6239014;28;20288;-76
2023/05/23 00:05:57;;;;;;;44.53;5.47;;;;;;;;;;6239807;28;20296;-77
2023/05/23 00:09:02;;;;;;;13.73;4.63;;;;;;;;;;6239492;28;20305;-77
2023/05/23 00:12:08;;;;;;;16.20;3.70;;;;;;;;;;6226922;28;20596;-77
2023/05/23 00:15:13;;;;;;;12.80;3.55;;;;;;;;;;6238968;28;20327;-77
2023/05/23 00:18:18;;;;;;;13.32;3.58;;;;;;;;;;6239005;28;20297;-77
2023/05/23 00:21:26;;;;;;;13.68;4.60;;;;;;;;;;6239383;28;20481;-77
2023/05/23 00:24:31;;;;;;;29.73;5.13;;;;;;;;;;6238864;28;20292;-77
2023/05/23 00:27:36;;;;;;;17.42;4.78;;;;;;;;;;6237427;28;20293;-77
2023/05/23 00:30:42;;;;;;;29.33;5.38;;;;;;;;;;6239375;28;20316;-77
2023/05/23 00:33:47;;;;;;;32.40;5.30;;;;;;;;;;6238276;28;20471;-77
2023/05/23 00:36:54;;;;;;;35.40;5.60;;;;;;;;;;6237802;28;20453;-76
2023/05/23 00:39:59;;;;;;;23.42;6.13;;;;;;;;;;6237181;28;20376;-77
2023/05/23 00:43:04;;;;;;;9.50;4.20;;;;;;;;;;6237121;28;20296;-76
2023/05/23 00:46:10;;;;;;;16.63;4.55;;;;;;;;;;6238882;28;20305;-77
2023/05/23 00:49:18;;;;;;;18.58;3.97;;;;;;;;;;6238213;28;20461;-77
2023/05/23 00:52:25;;;;;;;25.75;5.20;;;;;;;;;;6212001;28;20561;-75
2023/05/23 00:55:31;;;;;;;44.67;5.30;;;;;;;;;;6238160;28;20296;-75
2023/05/23 00:58:36;;;;;;;22.42;4.25;;;;;;;;;;6237214;28;20288;-76
2023/05/23 01:01:43;;;;;;;20.80;3.58;;;;;;;;;;6237114;28;20268;-76
2023/05/23 01:04:53;;;;;;;32.15;4.82;;;;;;;;;;6237627;28;20305;-76
2023/05/23 01:08:02;;;;;;;7.63;3.60;;;;;;;;;;6238080;28;20296;-76
2023/05/23 01:11:15;;;;;;;8.82;3.78;;;;;;;;;;6223921;28;20293;-76
2023/05/23 01:18:02;;;;;;;23.63;5.20;;;;;;;;;;6237554;28;20601;-76
2023/05/23 01:21:11;;;;;;;32.75;4.90;;;;;;;;;;6238645;28;20289;-76
2023/05/23 01:24:35;;;;;;;21.35;4.85;;;;;;;;;;6237624;28;20302;-77
2023/05/23 01:27:51;;;;;;;53.65;5.65;;;;;;;;;;6237726;28;20296;-76
2023/05/23 01:30:59;;;;;;;38.17;5.30;;;;;;;;;;6238107;28;20588;-76
2023/05/23 01:34:06;;;;;;;30.50;5.50;;;;;;;;;;6237318;28;20288;-76
2023/05/23 01:37:13;;;;;;;18.65;4.07;;;;;;;;;;6238043;28;20576;-76
2023/05/23 01:40:18;;;;;;;32.53;5.35;;;;;;;;;;6235768;28;20300;-77
2023/05/23 01:43:26;;;;;;;36.97;4.90;;;;;;;;;;6234883;28;20592;-75
2023/05/23 01:46:32;;;;;;;20.05;4.00;;;;;;;;;;6236609;28;20289;-75
2023/05/23 01:49:38;;;;;;;39.20;5.32;;;;;;;;;;6236015;28;20292;-75
2023/05/23 01:52:43;;;;;;;16.92;3.90;;;;;;;;;;6235639;28;20296;-77
2023/05/23 01:55:50;;;;;;;24.02;3.88;;;;;;;;;;6236363;28;20481;-76
2023/05/23 01:58:56;;;;;;;30.95;3.88;;;;;;;;;;6235593;28;20299;-75
2023/05/23 02:02:02;;;;;;;18.05;3.95;;;;;;;;;;6236587;28;20453;-76
2023/05/23 02:05:09;;;;;;;16.27;3.38;;;;;;;;;;6235562;28;20328;-75
2023/05/23 02:08:14;;;;;;;23.02;3.80;;;;;;;;;;6236024;28;20436;-77
2023/05/23 02:11:21;;;;;;;38.08;5.72;;;;;;;;;;6222750;28;20297;-77
2023/05/23 02:14:28;;;;;;;22.52;3.90;;;;;;;;;;6236312;28;20312;-77
2023/05/23 02:17:33;;;;;;;35.22;4.30;;;;;;;;;;6235752;28;20291;-75
2023/05/23 02:20:39;;;;;;;9.35;3.13;;;;;;;;;;6235414;28;20592;-76
2023/05/23 02:23:44;;;;;;;17.52;3.10;;;;;;;;;;6235048;28;20292;-76
2023/05/23 02:26:50;;;;;;;16.25;3.80;;;;;;;;;;6235599;28;20304;-76
2023/05/23 02:29:56;;;;;;;6.97;2.50;;;;;;;;;;6241477;28;20301;-77
2023/05/23 02:33:06;;;;;;;16.38;2.75;;;;;;;;;;6237058;28;20296;-76
2023/05/23 02:36:12;;;;;;;12.32;3.03;;;;;;;;;;6236647;28;20581;-76
2023/05/23 02:39:17;;;;;;;8.65;2.95;;;;;;;;;;6234734;28;20613;-76
2023/05/23 02:42:23;;;;;;;8.57;2.80;;;;;;;;;;6234955;28;20580;-77
2023/05/23 02:45:30;;;;;;;9.57;3.40;;;;;;;;;;6235109;28;20478;-77
2023/05/23 02:48:36;;;;;;;10.07;3.08;;;;;;;;;;6234819;28;20304;-76
2023/05/23 02:51:42;;;;;;;4.60;2.70;;;;;;;;;;6234990;28;20296;-76
2023/05/23 02:54:47;;;;;;;7.40;3.05;;;;;;;;;;6234704;28;20601;-75
2023/05/23 02:57:53;;;;;;;8.13;3.10;;;;;;;;;;6234226;28;20288;-76
2023/05/23 03:00:59;;;;;;;7.43;3.35;;;;;;;;;;6227716;28;20300;-77
2023/05/23 03:04:05;;;;;;;3.35;2.67;;;;;;;;;;6217892;28;20304;-76
2023/05/23 03:07:12;;;;;;;15.57;3.70;;;;;;;;;;6220412;28;20534;-77
2023/05/23 03:10:32;;;;;;;7.18;3.10;;;;;;;;;;6215644;28;20285;-76
2023/05/23 03:13:37;;;;;;;9.73;2.78;;;;;;;;;;6212973;28;20470;-77
2023/05/23 03:16:44;;;;;;;5.07;2.83;;;;;;;;;;6210426;28;20269;-76
2023/05/23 03:19:49;;;;;;;6.32;3.17;;;;;;;;;;6222872;28;20296;-76
2023/05/23 03:22:56;;;;;;;22.50;3.80;;;;;;;;;;6234212;28;20288;-76
2023/05/23 03:26:02;;;;;;;10.10;3.22;;;;;;;;;;6234586;28;20299;-75
2023/05/23 03:29:09;;;;;;;4.82;2.60;;;;;;;;;;6234225;28;20317;-76
2023/05/23 03:32:16;;;;;;;2.45;2.28;;;;;;;;;;6234427;28;20291;-76
2023/05/23 03:35:21;;;;;;;6.78;2.88;;;;;;;;;;6233782;28;20304;-75
2023/05/23 03:38:27;;;;;;;2.55;2.35;;;;;;;;;;6210631;28;20612;-76
2023/05/23 03:41:32;;;;;;;2.85;2.67;;;;;;;;;;6209907;28;20487;-76
2023/05/23 03:44:38;;;;;;;2.58;2.53;;;;;;;;;;6209528;28;20437;-76
2023/05/23 03:47:45;;;;;;;2.65;2.50;;;;;;;;;;6209436;28;20301;-76
2023/05/23 03:50:51;;;;;;;12.23;2.50;;;;;;;;;;6210183;28;20597;-77
2023/05/23 03:53:56;;;;;;;3.03;2.38;;;;;;;;;;6209693;28;20305;-76
2023/05/23 03:57:01;;;;;;;2.58;2.47;;;;;;;;;;6210137;28;20605;-75
2023/05/23 04:00:10;;;;;;;2.83;2.63;;;;;;;;;;6209092;28;20321;-78
2023/05/23 04:03:21;;;;;;;2.60;2.50;;;;;;;;;;6210264;28;20404;-77
2023/05/23 04:06:30;;;;;;;4.32;2.67;;;;;;;;;;6209783;28;20325;-77
2023/05/23 04:09:35;;;;;;;2.70;2.50;;;;;;;;;;6210401;28;20609;-77
2023/05/23 04:12:44;;;;;;;2.55;2.28;;;;;;;;;;6220048;28;20463;-77
2023/05/23 04:15:54;;;;;;;2.22;2.13;;;;;;;;;;6210022;28;20297;-77
2023/05/23 04:19:03;;;;;;;8.82;3.35;;;;;;;;;;6208983;28;20305;-76
2023/05/23 04:22:10;;;;;;;6.15;2.65;;;;;;;;;;6209585;28;20297;-76
2023/05/23 04:25:17;;;;;;;7.55;2.75;;;;;;;;;;6208965;28;20297;-76
2023/05/23 04:28:34;;;;;;;6.47;2.70;;;;;;;;;;6208587;28;20578;-77
2023/05/23 04:31:40;;;;;;;9.15;2.60;;;;;;;;;;6209433;28;20265;-76
2023/05/23 04:34:47;;;;;;;8.52;2.58;;;;;;;;;;6213415;28;20285;-76
2023/05/23 04:37:55;;;;;;;13.13;2.70;;;;;;;;;;6214907;28;20499;-76
2023/05/23 04:41:02;;;;;;;5.95;2.65;;;;;;;;;;6214079;28;20305;-75
2023/05/23 04:44:29;;;;;;;5.38;2.90;;;;;;;;;;6214643;28;20305;-76
2023/05/23 04:48:00;;;;;;;4.43;2.75;;;;;;;;;;6212929;28;20448;-75
2023/05/23 04:51:13;;;;;;;9.18;2.95;;;;;;;;;;6213869;28;20325;-78
2023/05/23 04:54:32;;;;;;;5.03;2.63;;;;;;;;;;6212558;28;20301;-76
2023/05/23 04:57:41;;;;;;;14.25;2.83;;;;;;;;;;6212537;28;20304;-76
2023/05/23 05:00:46;;;;;;;9.18;2.63;;;;;;;;;;6213651;28;20597;-76
2023/05/23 05:03:53;;;;;;;3.67;2.50;;;;;;;;;;6212177;28;20316;-76
2023/05/23 05:07:02;;;;;;;8.73;2.58;;;;;;;;;;6213649;28;20577;-77
2023/05/23 05:10:15;;;;;;;3.08;2.63;;;;;;;;;;6218096;28;20296;-75
2023/05/23 05:13:21;;;;;;;4.25;2.25;;;;;;;;;;6218567;28;20309;-78
2023/05/23 05:16:29;;;;;;;2.75;2.15;;;;;;;;;;6187962;28;20278;-77
2023/05/23 05:19:35;;;;;;;5.22;2.28;;;;;;;;;;6189371;28;20588;-75
2023/05/23 05:22:42;;;;;;;9.38;2.10;;;;;;;;;;6191156;28;20297;-76
2023/05/23 05:25:49;;;;;;;4.80;2.50;;;;;;;;;;6212297;28;20293;-77
2023/05/23 05:28:55;;;;;;;4.30;2.28;;;;;;;;;;6212083;28;20487;-77
2023/05/23 05:32:02;;;;;;;3.92;2.10;;;;;;;;;;6212246;28;20292;-75
2023/05/23 05:35:08;;;;;;;2.30;2.20;;;;;;;;;;6211998;28;20289;-77
2023/05/23 05:38:16;;;;;;;2.53;2.33;;;;;;;;;;6211701;28;20297;-76
2023/05/23 05:41:22;;;;;;;2.38;2.17;;;;;;;;;;6212012;28;20309;-76
2023/05/23 05:44:30;;;;;;;9.18;2.30;;;;;;;;;;6211300;28;20297;-77
2023/05/23 05:47:37;;;;;;;2.72;2.33;;;;;;;;;;6211962;28;20300;-77
2023/05/23 05:50:44;;;;;;;3.67;2.72;;;;;;;;;;6212308;28;20301;-77
2023/05/23 05:53:51;;;;;;;17.08;2.60;;;;;;;;;;6211152;28;20296;-78
2023/05/23 05:56:56;;;;;;;5.20;2.33;;;;;;;;;;6211971;28;20301;-76
2023/05/23 06:00:06;;;;;;;8.40;2.05;;;;;;;;;;6212752;28;20300;-77
2023/05/23 06:03:12;;;;;;;10.63;2.30;;;;;;;;;;6212080;28;20475;-76
2023/05/23 06:06:32;;;;;;;9.75;2.30;;;;;;;;;;6211862;28;20293;-75
2023/05/23 06:09:38;;;;;;;9.80;2.55;;;;;;;;;;6212887;28;20296;-77
2023/05/23 06:12:44;;;;;;;3.15;2.38;;;;;;;;;;6222066;28;20289;-76
2023/05/23 06:15:50;;;;;;;4.78;1.85;;;;;;;;;;6211538;28;20301;-77
2023/05/23 06:18:56;;;;;;;5.82;2.70;;;;;;;;;;6210999;28;20304;-76
2023/05/23 06:22:05;;;;;;;5.57;2.70;;;;;;;;;;6212954;28;20289;-76
2023/05/23 06:25:13;;;;;;;4.85;2.80;;;;;;;;;;6210721;28;20388;-76
2023/05/23 06:28:18;;;;;;;4.45;2.90;;;;;;;;;;6212307;28;20298;-76
2023/05/23 06:31:23;;;;;;;12.60;2.65;;;;;;;;;;6186662;28;20305;-76
2023/05/23 06:34:29;;;;;;;11.35;2.45;;;;;;;;;;6203995;28;20300;-76
2023/05/23 06:37:34;;;;;;;3.50;2.35;;;;;;;;;;6210363;28;20265;-77
2023/05/23 06:40:41;;;;;;;4.75;2.53;;;;;;;;;;6212435;28;20273;-77
2023/05/23 06:43:47;;;;;;;2.72;2.30;;;;;;;;;;6210339;28;20297;-76
2023/05/23 06:46:59;;;;;;;6.97;2.50;;;;;;;;;;6210638;28;20297;-76
2023/05/23 06:50:06;;;;;;;7.72;2.72;;;;;;;;;;6211782;28;20297;-75
2023/05/23 06:53:12;;;;;;;7.15;3.00;;;;;;;;;;6211834;28;20292;-77
2023/05/23 06:56:21;;;;;;;6.00;2.63;;;;;;;;;;6210098;28;20301;-77
2023/05/23 06:59:32;;;;;;;2.70;2.58;;;;;;;;;;6210255;28;20301;-76
2023/05/23 07:02:37;;;;;;;4.60;2.85;;;;;;;;;;6211372;28;20293;-76
2023/05/23 07:05:43;;;;;;;6.45;2.60;;;;;;;;;;6210617;28;20296;-75
2023/05/23 07:08:49;;;;;;;7.15;3.30;;;;;;;;;;6209739;28;20301;-75
2023/05/23 07:11:56;;;;;;;5.93;2.65;;;;;;;;;;6223569;28;20457;-75
2023/05/23 07:15:02;;;;;;;10.57;3.08;;;;;;;;;;6210063;28;20292;-75
2023/05/23 07:18:08;;;;;;;10.25;2.65;;;;;;;;;;6209754;28;20305;-77
2023/05/23 07:21:14;;;;;;;4.32;2.60;;;;;;;;;;6210068;28;20305;-76
2023/05/23 07:24:19;;;;;;;3.20;2.60;;;;;;;;;;6209796;28;20288;-77
2023/05/23 07:27:27;;;;;;;3.15;2.42;;;;;;;;;;6209741;28;20294;-76
2023/05/23 07:30:33;;;;;;;8.98;2.83;;;;;;;;;;6210436;28;20297;-76
2023/05/23 07:33:38;;;;;;;4.70;2.42;;;;;;;;;;6209634;28;20292;-76
2023/05/23 07:36:46;;;;;;;8.20;2.80;;;;;;;;;;6210374;28;20288;-76
2023/05/23 07:39:52;;;;;;;3.75;2.70;;;;;;;;;;6210144;28;20301;-76
2023/05/23 07:42:59;;;;;;;9.05;2.38;;;;;;;;;;6209561;28;20296;-76
2023/05/23 07:46:04;;;;;;;3.60;2.42;;;;;;;;;;6211177;28;20541;-76
2023/05/23 07:49:13;;;;;;;11.75;2.95;;;;;;;;;;6210758;28;20293;-77
2023/05/23 07:52:18;;;;;;;6.38;2.80;;;;;;;;;;6208513;28;20306;-75
2023/05/23 07:55:24;;;;;;;15.85;2.83;;;;;;;;;;6213651;28;20277;-76
2023/05/23 07:58:32;;;;;;;4.88;2.47;;;;;;;;;;6230431;28;20624;-76
2023/05/23 08:01:37;;;;;;;3.45;2.50;;;;;;;;;;6224080;28;20269;-76
2023/05/23 08:04:45;;;;;;;6.53;2.80;;;;;;;;;;6208913;28;20289;-76
2023/05/23 08:07:53;;;;;;;8.88;3.00;;;;;;;;;;6211421;28;20340;-77
2023/05/23 08:10:58;;;;;;;3.58;2.30;;;;;;;;;;6218350;28;20461;-77
2023/05/23 08:14:13;;;;;;;21.85;2.72;;;;;;;;;;6213780;28;20302;-77
2023/05/23 08:17:28;;;;;;;4.50;2.35;;;;;;;;;;6213537;28;20297;-76
2023/05/23 08:20:35;;;;;;;12.27;2.33;;;;;;;;;;6213998;28;20605;-77
2023/05/23 08:23:40;;;;;;;9.05;2.72;;;;;;;;;;6213612;28;20302;-76
2023/05/23 08:26:46;;;;;;;8.10;2.60;;;;;;;;;;6219961;28;20386;-77
2023/05/23 08:29:54;;;;;;;2.45;2.30;;;;;;;;;;6238066;28;20308;-77
2023/05/23 08:33:03;;;;;;;3.40;2.47;;;;;;;;;;6238087;28;20303;-78
2023/05/23 08:36:11;;;;;;;5.05;2.45;;;;;;;;;;6238246;28;20592;-77
2023/05/23 08:39:16;;;;;;;4.63;2.50;;;;;;;;;;6237986;28;20415;-77
2023/05/23 08:42:29;;;;;;;2.65;2.20;;;;;;;;;;6237664;28;20284;-77
2023/05/23 08:45:36;;;;;;;10.30;2.85;;;;;;;;;;6229570;28;20294;-76
2023/05/23 08:48:43;;;;;;;8.80;2.70;;;;;;;;;;6189106;28;20558;-76
2023/05/23 08:51:49;;;;;;;5.03;2.15;;;;;;;;;;6189898;28;20297;-75
2023/05/23 08:54:58;;;;;;;3.35;2.47;;;;;;;;;;6189294;28;20301;-76
2023/05/23 08:58:05;;;;;;;3.83;2.63;;;;;;;;;;6189004;28;20301;-76
2023/05/23 09:01:27;;;;;;;6.10;2.42;;;;;;;;;;6209416;28;20470;-76
2023/05/23 09:04:36;;;;;;;4.32;1.95;;;;;;;;;;6236972;28;20312;-77
2023/05/23 09:07:49;;;;;;;9.98;3.15;;;;;;;;;;6236933;28;20306;-77
2023/05/23 09:10:55;;;;;;;8.02;2.45;;;;;;;;;;6225208;28;20297;-77
2023/05/23 09:14:02;;;;;;;3.70;2.20;;;;;;;;;;6212196;28;20297;-77
2023/05/23 09:17:12;;;;;;;3.25;2.35;;;;;;;;;;6213347;28;20301;-77
2023/05/23 09:20:18;;;;;;;2.75;2.03;;;;;;;;;;6211805;28;20300;-77
2023/05/23 09:23:31;;;;;;;2.33;2.17;;;;;;;;;;6212182;28;20312;-76
2023/05/23 09:26:38;;;;;;;4.40;1.88;;;;;;;;;;6212294;28;20313;-77
2023/05/23 09:29:46;;;;;;;3.17;2.35;;;;;;;;;;6212217;28;20293;-76
2023/05/23 09:33:01;;;;;;;12.85;2.45;;;;;;;;;;6211526;28;20301;-76
2023/05/23 09:36:11;;;;;;;3.78;2.28;;;;;;;;;;6212748;28;20289;-78
2023/05/23 09:39:16;;;;;;;4.70;2.40;;;;;;;;;;6211990;28;20293;-77
2023/05/23 09:42:22;;;;;;;4.07;2.10;;;;;;;;;;6212121;28;20296;-76
2023/05/23 09:45:31;;;;;;;2.40;2.05;;;;;;;;;;6212469;28;20296;-76
2023/05/23 09:48:39;;;;;;;3.85;2.30;;;;;;;;;;6211913;28;20298;-76
2023/05/23 09:51:45;;;;;;;10.43;2.10;;;;;;;;;;6212142;28;20585;-76
2023/05/23 09:54:50;;;;;;;2.20;1.95;;;;;;;;;;6211224;28;20312;-76
2023/05/23 09:57:56;;;;;;;7.63;2.53;;;;;;;;;;6212971;28;20293;-76
2023/05/23 10:01:02;;;;;;;4.10;2.08;;;;;;;;;;6220930;28;20287;-78
2023/05/23 10:04:11;;;;;;;6.78;2.85;;;;;;;;;;6237529;28;20308;-76
2023/05/23 10:07:21;;;;;;;6.57;2.28;;;;;;;;;;6196305;28;20293;-77
2023/05/23 10:10:28;;;;;;;6.07;2.28;;;;;;;;;;6229633;28;20277;-76
2023/05/23 10:13:33;;;;;;;7.90;2.40;;;;;;;;;;6211142;28;20304;-77
2023/05/23 10:16:44;;;;;;;2.30;2.20;;;;;;;;;;6212855;28;20273;-77
2023/05/23 10:19:54;;;;;;;8.10;2.33;;;;;;;;;;6212503;28;20585;-76
2023/05/23 10:23:01;;;;;;;7.97;2.70;;;;;;;;;;6212406;28;20297;-75
2023/05/23 10:26:07;;;;;;;2.40;2.30;;;;;;;;;;6210522;28;20297;-76
2023/05/23 10:29:12;;;;;;;7.28;2.20;;;;;;;;;;6212909;28;20585;-77
2023/05/23 10:32:17;;;;;;;3.72;2.42;;;;;;;;;;6212064;28;20309;-76
2023/05/23 10:35:33;;;;;;;5.15;2.20;;;;;;;;;;6212313;28;20292;-76
2023/05/23 10:38:41;;;;;;;3.10;2.33;;;;;;;;;;6211967;28;20296;-75
2023/05/23 10:41:51;;;;;;;14.75;3.03;;;;;;;;;;6212490;28;20461;-76
2023/05/23 10:45:15;;;;;;;3.80;2.30;;;;;;;;;;6211711;28;20301;-77
2023/05/23 10:48:32;;;;;;;6.90;2.60;;;;;;;;;;6211593;28;20468;-76
2023/05/23 10:51:40;;;;;;;5.63;2.67;;;;;;;;;;6211812;28;20297;-76
2023/05/23 10:54:47;;;;;;;12.20;2.72;;;;;;;;;;6211625;28;20297;-76
2023/05/23 10:58:10;;;;;;;21.70;3.50;;;;;;;;;;6211397;28;20297;-77
2023/05/23 11:01:18;;;;;;;9.50;2.35;;;;;;;;;;6221360;28;20284;-76
2023/05/23 11:04:27;;;;;;;6.78;2.55;;;;;;;;;;6234248;28;20311;-76
2023/05/23 11:07:33;;;;;;;3.90;2.20;;;;;;;;;;6235734;28;20264;-77
2023/05/23 11:11:00;;;;;;;5.05;2.83;;;;;;;;;;6225652;28;20265;-77
2023/05/23 11:14:05;;;;;;;6.40;2.40;;;;;;;;;;6211476;28;20505;-77
2023/05/23 11:17:18;;;;;;;5.97;2.30;;;;;;;;;;6212024;28;20609;-76
2023/05/23 11:20:27;;;;;;;2.85;2.20;;;;;;;;;;6210688;28;20589;-76
2023/05/23 11:23:42;;;;;;;6.03;2.10;;;;;;;;;;6211489;28;20597;-76
2023/05/23 11:26:56;;;;;;;5.13;2.20;;;;;;;;;;6211460;28;20297;-77
2023/05/23 11:30:04;;;;;;;4.93;2.53;;;;;;;;;;6210966;28;20292;-77
2023/05/23 11:33:13;;;;;;;2.78;2.38;;;;;;;;;;6211368;28;20300;-76
2023/05/23 11:36:19;;;;;;;2.17;2.08;;;;;;;;;;6211239;28;20292;-76
2023/05/23 11:39:26;;;;;;;2.55;2.40;;;;;;;;;;6211145;28;20292;-76
2023/05/23 11:42:31;;;;;;;3.97;2.50;;;;;;;;;;6213810;28;20300;-75
2023/05/23 11:45:37;;;;;;;7.63;2.40;;;;;;;;;;6215885;28;20304;-76
2023/05/23 11:48:45;;;;;;;6.55;2.13;;;;;;;;;;6215651;28;20317;-77
2023/05/23 11:51:51;;;;;;;3.38;2.17;;;;;;;;;;6216391;28;20292;-77
2023/05/23 11:54:59;;;;;;;3.78;2.20;;;;;;;;;;6215528;28;20296;-77
2023/05/23 11:58:04;;;;;;;2.30;2.20;;;;;;;;;;6215703;28;20305;-78
2023/05/23 12:01:12;;;;;;;4.55;2.17;;;;;;;;;;6224303;28;20288;-76
2023/05/23 12:04:18;;;;;;;5.78;2.10;;;;;;;;;;6239364;28;20312;-76
2023/05/23 12:07:23;;;;;;;9.00;2.38;;;;;;;;;;6239384;28;20581;-76
2023/05/23 12:10:30;;;;;;;10.40;2.28;;;;;;;;;;6230838;28;20282;-77
2023/05/23 12:13:35;;;;;;;3.13;2.38;;;;;;;;;;6215917;28;20300;-77
2023/05/23 12:16:40;;;;;;;2.30;2.20;;;;;;;;;;6216030;28;20282;-77
2023/05/23 12:19:46;;;;;;;8.77;2.45;;;;;;;;;;6215266;28;20300;-77
2023/05/23 12:22:53;;;;;;;8.82;2.17;;;;;;;;;;6214807;28;20304;-77
2023/05/23 12:26:00;;;;;;;6.93;2.25;;;;;;;;;;6215040;28;20319;-77
2023/05/23 12:29:05;;;;;;;4.18;2.00;;;;;;;;;;6214844;28;20299;-77
2023/05/23 12:32:12;;;;;;;2.95;2.40;;;;;;;;;;6214915;28;20297;-77
2023/05/23 12:35:17;;;;;;;2.92;2.40;;;;;;;;;;6214405;28;20297;-76
2023/05/23 12:38:22;;;;;;;3.60;2.30;;;;;;;;;;6214493;28;20304;-76
2023/05/23 12:41:28;;;;;;;10.82;2.40;;;;;;;;;;6215030;28;20292;-77
2023/05/23 12:44:34;;;;;;;7.88;2.60;;;;;;;;;;6214546;28;20545;-76
2023/05/23 12:47:39;;;;;;;19.40;2.92;;;;;;;;;;6214791;28;20292;-76
2023/05/23 12:50:44;;;;;;;3.15;2.05;;;;;;;;;;6214655;28;20296;-77
2023/05/23 12:53:50;;;;;;;8.35;2.17;;;;;;;;;;6212303;28;20310;-77
2023/05/23 12:56:56;;;;;;;6.20;2.30;;;;;;;;;;6214715;28;20301;-76
2023/05/23 13:00:01;;;;;;;1.98;1.98;;;;;;;;;;6214253;28;20297;-76
2023/05/23 13:03:07;;;;;;;7.63;2.70;;;;;;;;;;6237927;28;20488;-76
2023/05/23 13:06:12;;;;;;;12.60;3.67;;;;;;;;;;6238539;28;20292;-76
2023/05/23 13:09:18;;;;;;;4.05;2.35;;;;;;;;;;6237972;28;20296;-77
2023/05/23 13:12:24;;;;;;;3.05;2.22;;;;;;;;;;6213848;28;20582;-76
2023/05/23 13:15:30;;;;;;;9.70;2.80;;;;;;;;;;6214576;28;20301;-76
2023/05/23 13:18:35;;;;;;;4.47;2.90;;;;;;;;;;6213641;28;20289;-76
2023/05/23 13:21:40;;;;;;;2.88;2.35;;;;;;;;;;6214221;28;20297;-76
2023/05/23 13:24:46;;;;;;;6.82;2.25;;;;;;;;;;6213497;28;20304;-78
2023/05/23 13:27:53;;;;;;;2.80;2.50;;;;;;;;;;6213830;28;20304;-78
2023/05/23 13:30:59;;;;;;;3.35;2.40;;;;;;;;;;6213907;28;20481;-75
2023/05/23 13:34:04;;;;;;;7.35;2.38;;;;;;;;;;6212847;28;20498;-75
2023/05/23 13:37:12;;;;;;;7.13;2.38;;;;;;;;;;6213892;28;20289;-74
2023/05/23 13:40:19;;;;;;;2.20;2.10;;;;;;;;;;6213355;28;20309;-76
2023/05/23 13:43:25;;;;;;;3.75;2.22;;;;;;;;;;6195953;28;20297;-75
2023/05/23 13:46:30;;;;;;;3.60;2.00;;;;;;;;;;6213579;28;20408;-75
2023/05/23 13:49:35;;;;;;;2.10;2.00;;;;;;;;;;6212946;28;20301;-74
2023/05/23 13:52:41;;;;;;;3.50;2.15;;;;;;;;;;6212737;28;20288;-73
2023/05/23 13:55:50;;;;;;;2.55;2.00;;;;;;;;;;6211834;28;20296;-75
2023/05/23 13:58:57;;;;;;;2.67;2.40;;;;;;;;;;6212724;28;20462;-74
2023/05/23 14:02:02;;;;;;;5.78;2.75;;;;;;;;;;6228745;28;20299;-76
2023/05/23 14:05:08;;;;;;;21.55;2.95;;;;;;;;;;6235537;28;20292;-76
2023/05/23 14:08:15;;;;;;;5.38;2.40;;;;;;;;;;6236940;28;20301;-73
2023/05/23 14:11:20;;;;;;;9.60;2.95;;;;;;;;;;6221400;28;20292;-73
2023/05/23 14:14:26;;;;;;;4.53;2.83;;;;;;;;;;6212443;28;20301;-74
2023/05/23 14:17:32;;;;;;;2.60;2.50;;;;;;;;;;6212539;28;20297;-76
2023/05/23 14:20:37;;;;;;;2.00;1.90;;;;;;;;;;6212775;28;20596;-74
2023/05/23 14:23:42;;;;;;;4.70;2.33;;;;;;;;;;6212059;28;20301;-75
2023/05/23 14:26:48;;;;;;;2.65;2.28;;;;;;;;;;6212388;28;20289;-75
2023/05/23 14:29:55;;;;;;;2.08;1.98;;;;;;;;;;6210820;28;20297;-76
2023/05/23 14:33:00;;;;;;;7.18;2.10;;;;;;;;;;6211913;28;20337;-74
2023/05/23 14:36:07;;;;;;;2.17;1.98;;;;;;;;;;6212100;28;20293;-73
2023/05/23 14:39:12;;;;;;;2.10;1.90;;;;;;;;;;6211801;28;20305;-74
2023/05/23 14:42:17;;;;;;;3.45;2.00;;;;;;;;;;6212411;28;20329;-73
2023/05/23 14:45:24;;;;;;;2.10;2.00;;;;;;;;;;6210689;28;20309;-74
2023/05/23 14:48:29;;;;;;;2.35;2.20;;;;;;;;;;6211483;28;20293;-75
2023/05/23 14:51:36;;;;;;;2.05;2.00;;;;;;;;;;6212273;28;20289;-75
2023/05/23 14:54:46;;;;;;;2.40;2.17;;;;;;;;;;6211544;28;20392;-75
2023/05/23 14:57:51;;;;;;;2.28;2.17;;;;;;;;;;6211383;28;20309;-76
2023/05/23 15:00:58;;;;;;;2.20;2.10;;;;;;;;;;6218080;28;20287;-76
2023/05/23 15:04:04;;;;;;;2.20;2.00;;;;;;;;;;6234794;28;20388;-76
2023/05/23 15:07:09;;;;;;;7.55;2.13;;;;;;;;;;6234303;28;20292;-76
2023/05/23 15:10:15;;;;;;;2.55;2.35;;;;;;;;;;6228937;28;20296;-75
2023/05/23 15:13:20;;;;;;;2.10;1.92;;;;;;;;;;6211652;28;20297;-77
2023/05/23 15:16:31;;;;;;;3.95;2.40;;;;;;;;;;6210048;28;20312;-74
2023/05/23 15:19:37;;;;;;;2.00;1.90;;;;;;;;;;6210975;28;20297;-76
2023/05/23 15:22:43;;;;;;;3.72;2.03;;;;;;;;;;6211390;28;20292;-76
2023/05/23 15:25:48;;;;;;;2.50;2.33;;;;;;;;;;6212193;28;20581;-77
2023/05/23 15:28:54;;;;;;;1.88;1.77;;;;;;;;;;6211321;28;20289;-77
2023/05/23 15:32:01;;;;;;;2.45;2.30;;;;;;;;;;6210761;28;20293;-76
2023/05/23 15:35:07;;;;;;;2.42;2.08;;;;;;;;;;6212646;28;20316;-77
2023/05/23 15:38:13;;;;;;;5.78;2.58;;;;;;;;;;6211281;28;20300;-77
2023/05/23 15:41:20;;;;;;;2.88;1.95;;;;;;;;;;6212319;28;20305;-76
2023/05/23 15:44:26;;;;;;;8.10;2.22;;;;;;;;;;6211655;28;20309;-75
2023/05/23 15:47:33;;;;;;;1.92;1.90;;;;;;;;;;6211456;28;20306;-77
2023/05/23 15:50:38;;;;;;;1.98;1.85;;;;;;;;;;6211004;28;20301;-76
2023/05/23 15:53:44;;;;;;;1.90;1.90;;;;;;;;;;6211301;28;20509;-75
2023/05/23 15:57:05;;;;;;;3.25;1.90;;;;;;;;;;6211601;28;20301;-78
2023/05/23 16:00:13;;;;;;;5.38;2.05;;;;;;;;;;6211584;28;20308;-77
2023/05/23 16:03:20;;;;;;;2.05;1.95;;;;;;;;;;6235421;28;20304;-75
2023/05/23 16:06:26;;;;;;;5.10;2.10;;;;;;;;;;6235535;28;20296;-75
2023/05/23 16:09:32;;;;;;;2.13;1.90;;;;;;;;;;6235056;28;20301;-77
2023/05/23 16:12:37;;;;;;;6.95;2.20;;;;;;;;;;6211189;28;20320;-76
2023/05/23 16:15:43;;;;;;;2.08;1.90;;;;;;;;;;6211832;28;20308;-76
2023/05/23 16:18:50;;;;;;;2.17;2.08;;;;;;;;;;6210639;28;20608;-76
2023/05/23 16:21:55;;;;;;;2.05;1.88;;;;;;;;;;6211836;28;20503;-77
2023/05/23 16:25:00;;;;;;;3.00;2.80;;;;;;;;;;6211620;28;20305;-76
2023/05/23 16:28:06;;;;;;;3.92;2.40;;;;;;;;;;6211488;28;20534;-76
2023/05/23 16:31:13;;;;;;;2.20;2.10;;;;;;;;;;6215764;28;20328;-76
2023/05/23 16:34:19;;;;;;;7.97;2.50;;;;;;;;;;6215196;28;20306;-76
2023/05/23 16:37:25;;;;;;;4.10;2.17;;;;;;;;;;6213655;28;20593;-74
2023/05/23 16:40:30;;;;;;;5.07;3.92;;;;;;;;;;6215866;28;20269;-76
2023/05/23 16:43:35;;;;;;;2.20;1.90;;;;;;;;;;6214814;28;20301;-76
2023/05/23 16:46:41;;;;;;;2.95;2.10;;;;;;;;;;6215209;28;20273;-77
2023/05/23 16:49:47;;;;;;;3.45;2.28;;;;;;;;;;6215052;28;20290;-76
2023/05/23 16:52:54;;;;;;;6.07;2.03;;;;;;;;;;6214605;28;20292;-75
2023/05/23 16:55:59;;;;;;;5.20;1.95;;;;;;;;;;6215224;28;20297;-76
2023/05/23 16:59:04;;;;;;;5.25;2.47;;;;;;;;;;6214818;28;20298;-77
2023/05/23 17:02:14;;;;;;;5.00;2.22;;;;;;;;;;6231617;28;20300;-76
2023/05/23 17:05:21;;;;;;;2.92;2.60;;;;;;;;;;6238003;28;20292;-76
2023/05/23 17:08:26;;;;;;;2.47;2.30;;;;;;;;;;6238242;28;20292;-76
2023/05/23 17:11:32;;;;;;;4.38;3.20;;;;;;;;;;6221545;28;20293;-76
2023/05/23 17:14:37;;;;;;;2.97;2.67;;;;;;;;;;6213952;28;20316;-77
2023/05/23 17:17:42;;;;;;;3.70;2.80;;;;;;;;;;6213791;28;20289;-77
2023/05/23 17:20:49;;;;;;;2.58;2.30;;;;;;;;;;6214366;28;20519;-76
2023/05/23 17:23:54;;;;;;;2.70;2.50;;;;;;;;;;6213955;28;20289;-78
2023/05/23 17:26:59;;;;;;;2.83;2.47;;;;;;;;;;6214916;28;20285;-76
2023/05/23 17:30:05;;;;;;;2.88;2.65;;;;;;;;;;6214212;28;20317;-78
2023/05/23 17:33:14;;;;;;;7.97;2.63;;;;;;;;;;6214044;28;20310;-77
2023/05/23 17:36:21;;;;;;;6.28;2.63;;;;;;;;;;6214866;28;20480;-77
2023/05/23 17:39:26;;;;;;;3.67;2.45;;;;;;;;;;6213340;28;20296;-77
2023/05/23 17:42:31;;;;;;;4.93;3.03;;;;;;;;;;6213184;28;20309;-76
2023/05/23 17:45:36;;;;;;;2.38;2.38;;;;;;;;;;6213986;28;20296;-77
2023/05/23 17:48:42;;;;;;;4.53;2.78;;;;;;;;;;6213460;28;20297;-77
2023/05/23 17:51:53;;;;;;;4.13;2.80;;;;;;;;;;6212672;28;20296;-77
2023/05/23 17:54:58;;;;;;;3.25;2.65;;;;;;;;;;6213529;28;20293;-76
2023/05/23 17:58:03;;;;;;;3.03;2.85;;;;;;;;;;6211635;28;20409;-77
2023/05/23 18:01:10;;;;;;;6.05;2.67;;;;;;;;;;6222139;28;20292;-76
2023/05/23 18:04:15;;;;;;;3.67;2.78;;;;;;;;;;6235573;28;20312;-77
2023/05/23 18:07:22;;;;;;;14.95;3.13;;;;;;;;;;6237760;28;20301;-77
2023/05/23 18:10:27;;;;;;;4.45;2.85;;;;;;;;;;6204702;28;20317;-74
2023/05/23 18:13:32;;;;;;;3.17;2.97;;;;;;;;;;6213267;28;20321;-77
2023/05/23 18:16:38;;;;;;;9.68;2.78;;;;;;;;;;6214691;28;20584;-76
2023/05/23 18:19:44;;;;;;;5.32;2.75;;;;;;;;;;6212891;28;20297;-77
2023/05/23 18:22:54;;;;;;;5.82;2.67;;;;;;;;;;6212588;28;20304;-76
2023/05/23 18:25:59;;;;;;;6.97;2.75;;;;;;;;;;6213664;28;20309;-76
2023/05/23 18:29:04;;;;;;;4.20;2.60;;;;;;;;;;6212745;28;20532;-76
2023/05/23 18:32:10;;;;;;;9.73;3.03;;;;;;;;;;6213143;28;20292;-78
2023/05/23 18:35:16;;;;;;;5.28;2.55;;;;;;;;;;6212801;28;20480;-78
2023/05/23 18:38:22;;;;;;;5.78;2.75;;;;;;;;;;6212113;28;20492;-80
2023/05/23 18:41:28;;;;;;;4.22;2.63;;;;;;;;;;6212687;28;20317;-75
2023/05/23 18:44:34;;;;;;;3.63;2.70;;;;;;;;;;6212122;28;20302;-77